Time;durP1;ratioP1;P1;durP2;ratioP2;P2;SDS_P1;SDS_P2;PMS_P1;PMS_P2;Temp;Humidity;BMP_temperature;BMP_pressure;BME280_temperature;BME280_humidity;BME280_pressure;Samples;Min_cycle;Max_cycle;Signal;HPM_P1;HPM_P2
2022/07/06 00:00:33;;;;;;;3.20;2.70;;;19.30;84.80;;;;;;5027052;28;20190;-67
2022/07/06 00:02:59;;;;;;;3.40;2.73;;;19.40;85.20;;;;;;5029418;28;20187;-67
2022/07/06 00:05:25;;;;;;;3.47;2.20;;;19.30;85.50;;;;;;5028866;28;20186;-67
2022/07/06 00:07:51;;;;;;;3.17;2.55;;;19.30;85.80;;;;;;5028850;28;20568;-68
2022/07/06 00:10:17;;;;;;;3.40;2.70;;;19.40;86.30;;;;;;5026600;28;20183;-69
2022/07/06 00:12:42;;;;;;;3.40;3.10;;;19.50;86.50;;;;;;5024984;28;20285;-67
2022/07/06 00:15:08;;;;;;;3.80;3.37;;;19.40;85.70;;;;;;5023534;28;20194;-68
2022/07/06 00:17:34;;;;;;;3.17;2.97;;;19.50;85.80;;;;;;5026212;28;21698;-67
2022/07/06 00:20:03;;;;;;;3.53;3.03;;;19.50;86.20;;;;;;5020456;28;20201;-68
2022/07/06 00:22:29;;;;;;;3.03;2.83;;;19.40;88.40;;;;;;5025908;28;21157;-67
2022/07/06 00:24:54;;;;;;;2.90;2.57;;;19.40;89.60;;;;;;5031709;28;20182;-68
2022/07/06 00:27:20;;;;;;;2.60;2.40;;;19.40;87.50;;;;;;5031095;28;20635;-68
2022/07/06 00:29:46;;;;;;;3.20;3.00;;;19.80;88.60;;;;;;5031771;28;20221;-67
2022/07/06 00:32:11;;;;;;;3.03;2.83;;;19.60;86.90;;;;;;5030395;28;20203;-68
2022/07/06 00:34:39;;;;;;;3.27;2.97;;;19.80;85.50;;;;;;5028737;28;20296;-68
2022/07/06 00:37:06;;;;;;;3.50;3.20;;;19.90;85.50;;;;;;5024999;28;20444;-68
2022/07/06 00:39:32;;;;;;;3.17;2.92;;;19.70;85.40;;;;;;5028103;28;20189;-68
2022/07/06 00:41:58;;;;;;;3.50;3.20;;;19.70;85.30;;;;;;5025964;28;20229;-67
2022/07/06 00:44:24;;;;;;;3.30;3.00;;;19.60;85.30;;;;;;5029116;28;20583;-67
2022/07/06 00:46:50;;;;;;;3.53;3.23;;;19.80;86.50;;;;;;5026837;28;20186;-67
2022/07/06 00:52:00;;;;;;;3.10;2.90;;;19.50;86.30;;;;;;5033077;28;20451;-68
2022/07/06 00:54:28;;;;;;;3.50;3.20;;;19.50;85.90;;;;;;5028537;28;20178;-68
2022/07/06 00:56:53;;;;;;;3.20;3.00;;;19.40;86.20;;;;;;5028409;28;20452;-67
2022/07/06 00:59:19;;;;;;;3.50;3.27;;;19.50;87.10;;;;;;5027341;28;20189;-68
2022/07/06 01:01:45;;;;;;;5.28;3.60;;;19.60;86.40;;;;;;5031495;28;20237;-67
2022/07/06 01:04:11;;;;;;;3.70;3.50;;;19.50;85.90;;;;;;5028701;28;20307;-68
2022/07/06 01:06:37;;;;;;;3.80;3.03;;;19.50;86.40;;;;;;5031648;28;20210;-67
2022/07/06 01:09:05;;;;;;;3.40;3.10;;;19.30;87.90;;;;;;5032015;28;20206;-67
2022/07/06 01:11:31;;;;;;;3.38;3.17;;;19.30;87.90;;;;;;5030537;28;20194;-68
2022/07/06 01:13:57;;;;;;;3.42;3.15;;;19.50;86.60;;;;;;5027395;28;20190;-68
2022/07/06 01:16:23;;;;;;;3.70;3.40;;;19.40;87.00;;;;;;5030081;28;20181;-68
2022/07/06 01:18:48;;;;;;;3.92;3.63;;;19.20;87.40;;;;;;5026793;28;20187;-68
2022/07/06 01:21:15;;;;;;;3.60;3.30;;;19.10;89.30;;;;;;5031190;28;20676;-67
2022/07/06 01:23:46;;;;;;;3.15;2.92;;;19.00;90.30;;;;;;5032987;28;20178;-68
2022/07/06 01:26:20;;;;;;;2.90;2.70;;;19.00;90.40;;;;;;5031820;28;20272;-68
2022/07/06 01:28:48;;;;;;;3.67;3.38;;;18.90;89.80;;;;;;5023571;28;20210;-68
2022/07/06 01:31:34;;;;;;;3.67;3.38;;;19.10;89.70;;;;;;5030457;28;20193;-67
2022/07/06 01:34:00;;;;;;;3.30;3.10;;;19.10;89.20;;;;;;5025681;28;20200;-68
2022/07/06 01:36:26;;;;;;;3.00;2.80;;;19.20;86.30;;;;;;5027825;28;20178;-68
2022/07/06 01:38:54;;;;;;;2.95;2.75;;;19.20;86.00;;;;;;5021118;28;20194;-68
2022/07/06 01:41:21;;;;;;;3.38;3.08;;;19.20;84.80;;;;;;5029558;28;20695;-68
2022/07/06 01:43:46;;;;;;;3.42;3.08;;;19.20;84.50;;;;;;5028945;28;20746;-68
2022/07/06 01:46:13;;;;;;;2.80;2.60;;;19.20;84.90;;;;;;5023588;28;20274;-68
2022/07/06 01:48:39;;;;;;;2.95;2.60;;;19.40;85.00;;;;;;5024477;28;20472;-67
2022/07/06 01:51:05;;;;;;;2.93;2.73;;;19.20;82.00;;;;;;5031908;28;20684;-68
2022/07/06 01:53:31;;;;;;;7.93;4.38;;;19.10;82.30;;;;;;5028679;28;20179;-65
2022/07/06 01:55:57;;;;;;;2.77;2.57;;;19.10;82.70;;;;;;5030271;28;20190;-65
2022/07/06 01:58:23;;;;;;;3.07;2.83;;;19.10;81.80;;;;;;5027036;28;20183;-68
2022/07/06 02:00:48;;;;;;;2.63;2.43;;;19.10;82.00;;;;;;5027084;28;20275;-68
2022/07/06 02:03:14;;;;;;;5.60;2.57;;;19.00;82.20;;;;;;5027289;28;20248;-68
2022/07/06 02:05:40;;;;;;;4.60;3.20;;;18.90;81.80;;;;;;5027772;28;20277;-68
2022/07/06 02:08:05;;;;;;;2.80;2.60;;;18.90;82.60;;;;;;5028227;28;20206;-67
2022/07/06 02:10:31;;;;;;;4.93;3.20;;;18.80;82.50;;;;;;5023110;28;20676;-68
2022/07/06 02:12:57;;;;;;;3.00;2.80;;;18.90;82.60;;;;;;5024871;28;20190;-65
2022/07/06 02:15:23;;;;;;;3.30;2.77;;;18.80;82.50;;;;;;5030505;28;20285;-65
2022/07/06 02:17:48;;;;;;;3.90;2.60;;;18.80;83.20;;;;;;5029941;28;20182;-65
2022/07/06 02:20:14;;;;;;;2.97;2.67;;;18.80;83.00;;;;;;5025538;28;20182;-65
2022/07/06 02:22:39;;;;;;;3.53;2.33;;;18.80;84.40;;;;;;5030828;28;20586;-64
2022/07/06 02:25:05;;;;;;;3.40;3.10;;;18.70;85.00;;;;;;5027955;28;20178;-65
2022/07/06 02:27:31;;;;;;;4.70;2.83;;;18.90;84.70;;;;;;5026032;28;20273;-67
2022/07/06 02:29:57;;;;;;;2.77;2.40;;;18.90;82.90;;;;;;5026446;28;21758;-68
2022/07/06 02:32:22;;;;;;;2.77;2.57;;;18.90;83.20;;;;;;5023288;28;20201;-68
2022/07/06 02:34:48;;;;;;;7.40;2.97;;;18.90;82.90;;;;;;5025913;28;20187;-68
2022/07/06 02:37:14;;;;;;;3.10;2.90;;;18.90;82.50;;;;;;5024852;28;20210;-68
2022/07/06 02:39:40;;;;;;;2.87;2.60;;;18.80;83.30;;;;;;5028594;28;20192;-68
2022/07/06 02:42:05;;;;;;;3.20;2.90;;;18.70;83.40;;;;;;5025965;28;20206;-68
2022/07/06 02:44:31;;;;;;;3.80;3.00;;;18.60;83.60;;;;;;5026393;28;20186;-68
2022/07/06 02:46:57;;;;;;;3.67;2.70;;;18.60;84.00;;;;;;5028971;28;20231;-68
2022/07/06 02:49:23;;;;;;;2.90;2.67;;;18.60;84.90;;;;;;5028418;28;20494;-67
2022/07/06 02:51:48;;;;;;;3.17;2.80;;;18.60;85.10;;;;;;5025436;28;20203;-68
2022/07/06 02:54:14;;;;;;;3.60;2.97;;;18.70;84.50;;;;;;5029016;28;20568;-67
2022/07/06 02:56:39;;;;;;;5.17;3.10;;;18.60;85.30;;;;;;5024012;28;20716;-67
2022/07/06 02:59:05;;;;;;;3.83;2.80;;;18.80;85.30;;;;;;5027793;28;20205;-68
2022/07/06 03:01:31;;;;;;;3.97;2.80;;;18.80;85.00;;;;;;5025906;28;20288;-68
2022/07/06 03:03:56;;;;;;;3.20;2.90;;;19.30;85.20;;;;;;5022517;28;20260;-67
2022/07/06 03:06:22;;;;;;;3.00;2.70;;;18.70;84.60;;;;;;5026858;28;20190;-67
2022/07/06 03:08:47;;;;;;;2.83;2.60;;;18.60;85.20;;;;;;5027763;28;20253;-67
2022/07/06 03:11:13;;;;;;;3.63;3.30;;;18.80;86.10;;;;;;5029253;28;20197;-68
2022/07/06 03:13:39;;;;;;;2.77;2.57;;;19.00;84.80;;;;;;5017095;28;20233;-67
2022/07/06 03:16:04;;;;;;;4.03;3.33;;;18.90;85.50;;;;;;5029954;28;20182;-68
2022/07/06 03:18:30;;;;;;;3.20;3.00;;;18.90;84.70;;;;;;5026322;28;20252;-68
2022/07/06 03:20:56;;;;;;;5.43;3.33;;;18.70;84.70;;;;;;5026391;28;20210;-67
2022/07/06 03:23:21;;;;;;;5.20;3.20;;;18.60;86.00;;;;;;5028767;28;20652;-68
2022/07/06 03:25:47;;;;;;;3.27;2.70;;;18.60;86.10;;;;;;5029469;28;20236;-67
2022/07/06 03:28:13;;;;;;;3.00;2.80;;;18.70;86.60;;;;;;5022229;28;20210;-67
2022/07/06 03:30:38;;;;;;;3.70;3.43;;;18.70;85.80;;;;;;5028726;28;20193;-68
2022/07/06 03:33:04;;;;;;;3.33;3.07;;;18.60;86.10;;;;;;5027147;28;20190;-68
2022/07/06 03:35:30;;;;;;;3.60;3.40;;;18.50;86.90;;;;;;5026054;28;20269;-68
2022/07/06 03:37:56;;;;;;;3.60;3.30;;;18.30;87.70;;;;;;5028902;28;21136;-65
2022/07/06 03:40:22;;;;;;;3.72;3.42;;;18.20;88.50;;;;;;5026958;28;20174;-65
2022/07/06 03:42:47;;;;;;;4.83;3.50;;;18.20;89.40;;;;;;5018905;28;20564;-65
2022/07/06 03:45:13;;;;;;;3.70;3.40;;;18.00;90.00;;;;;;5022191;28;20274;-65
2022/07/06 03:47:39;;;;;;;3.63;3.33;;;17.80;90.40;;;;;;5028971;28;20222;-66
2022/07/06 03:50:05;;;;;;;4.63;3.47;;;17.70;90.80;;;;;;5021026;28;20587;-66
2022/07/06 03:52:31;;;;;;;3.28;2.97;;;17.60;91.10;;;;;;5026997;28;20235;-66
2022/07/06 03:54:56;;;;;;;3.90;3.60;;;17.50;91.40;;;;;;5029423;28;20178;-66
2022/07/06 03:57:22;;;;;;;4.40;3.00;;;17.30;91.80;;;;;;5026093;28;20183;-66
2022/07/06 03:59:48;;;;;;;3.20;3.00;;;17.40;92.30;;;;;;5031426;28;20669;-66
2022/07/06 04:02:13;;;;;;;3.60;3.30;;;17.30;92.60;;;;;;5029597;28;20225;-66
2022/07/06 04:04:39;;;;;;;3.27;3.07;;;17.10;93.00;;;;;;5032654;28;20201;-67
2022/07/06 04:07:04;;;;;;;3.30;3.00;;;17.10;93.10;;;;;;5026373;28;20213;-65
2022/07/06 04:09:30;;;;;;;3.43;3.10;;;17.20;93.30;;;;;;5026916;28;20203;-65
2022/07/06 04:11:56;;;;;;;4.30;3.90;;;17.40;93.50;;;;;;5031953;28;20206;-66
2022/07/06 04:14:21;;;;;;;5.27;3.77;;;17.40;93.30;;;;;;5033593;28;20178;-66
2022/07/06 04:16:47;;;;;;;4.77;4.13;;;17.30;93.00;;;;;;5031588;28;20183;-66
2022/07/06 04:19:12;;;;;;;5.80;3.80;;;17.20;93.40;;;;;;5028820;28;20197;-65
2022/07/06 04:21:38;;;;;;;3.70;3.50;;;17.30;93.90;;;;;;5029569;28;20210;-65
2022/07/06 04:24:04;;;;;;;3.83;3.27;;;17.50;94.20;;;;;;5031971;28;20276;-65
2022/07/06 04:26:30;;;;;;;4.13;3.80;;;17.40;94.00;;;;;;5032599;28;20281;-66
2022/07/06 04:28:55;;;;;;;7.00;3.83;;;17.40;94.00;;;;;;5032962;28;20224;-66
2022/07/06 04:31:21;;;;;;;4.00;3.37;;;17.40;93.50;;;;;;5032430;28;20613;-65
2022/07/06 04:33:47;;;;;;;3.40;3.20;;;17.40;93.70;;;;;;5026248;28;20202;-65
2022/07/06 04:36:13;;;;;;;4.20;3.90;;;17.80;93.40;;;;;;5031764;28;20174;-66
2022/07/06 04:38:38;;;;;;;4.67;4.10;;;17.80;93.10;;;;;;5028298;28;20215;-66
2022/07/06 04:41:04;;;;;;;4.10;3.77;;;17.90;92.80;;;;;;5028898;28;20249;-68
2022/07/06 04:43:30;;;;;;;4.40;3.90;;;17.80;92.80;;;;;;5030858;28;20183;-66
2022/07/06 04:45:55;;;;;;;4.67;3.90;;;17.80;93.20;;;;;;5026323;28;20244;-64
2022/07/06 04:48:21;;;;;;;4.20;3.80;;;17.90;93.60;;;;;;5024832;28;20667;-63
2022/07/06 04:50:47;;;;;;;5.57;4.07;;;18.10;93.40;;;;;;5026327;28;20285;-64
2022/07/06 04:53:12;;;;;;;4.60;4.20;;;18.10;93.10;;;;;;5028272;28;20190;-65
2022/07/06 04:55:38;;;;;;;4.60;4.20;;;18.10;93.30;;;;;;5029366;28;20190;-64
2022/07/06 04:58:04;;;;;;;4.77;4.30;;;18.10;92.70;;;;;;5026931;28;20187;-65
2022/07/06 05:00:29;;;;;;;4.90;4.40;;;18.10;92.80;;;;;;5026064;28;20183;-64
2022/07/06 05:02:55;;;;;;;5.50;4.80;;;18.10;92.90;;;;;;5030352;28;20192;-64
2022/07/06 05:05:20;;;;;;;7.80;6.97;;;18.10;93.00;;;;;;5027221;28;20232;-64
2022/07/06 05:07:46;;;;;;;6.60;4.50;;;18.10;92.80;;;;;;5028049;28;20668;-64
2022/07/06 05:10:12;;;;;;;5.50;5.10;;;18.10;93.00;;;;;;5023748;28;20544;-64
2022/07/06 05:12:38;;;;;;;5.78;4.88;;;18.20;93.00;;;;;;5023653;28;20207;-64
2022/07/06 05:15:04;;;;;;;5.60;5.10;;;18.00;93.00;;;;;;5026744;28;20183;-64
2022/07/06 05:17:30;;;;;;;5.63;4.70;;;18.10;93.50;;;;;;5029255;28;20190;-64
2022/07/06 05:19:56;;;;;;;5.47;4.97;;;18.00;93.70;;;;;;5026840;28;20221;-64
2022/07/06 05:22:22;;;;;;;7.20;5.13;;;18.20;94.00;;;;;;5026292;28;20564;-64
2022/07/06 05:24:47;;;;;;;7.77;4.77;;;18.00;94.00;;;;;;5028332;28;20190;-64
2022/07/06 05:27:13;;;;;;;4.73;4.33;;;18.00;93.90;;;;;;5030119;28;20194;-64
2022/07/06 05:29:38;;;;;;;7.77;5.17;;;18.10;93.90;;;;;;5029577;28;20344;-64
2022/07/06 05:32:04;;;;;;;4.80;4.40;;;18.30;93.90;;;;;;5028968;28;20252;-64
2022/07/06 05:34:30;;;;;;;8.17;4.97;;;18.40;93.50;;;;;;5026964;28;20190;-65
2022/07/06 05:36:56;;;;;;;8.20;5.17;;;18.40;93.30;;;;;;5028177;28;20948;-65
2022/07/06 05:39:22;;;;;;;5.60;4.97;;;18.60;92.90;;;;;;5023394;28;20194;-64
2022/07/06 05:41:48;;;;;;;5.70;5.15;;;18.50;93.30;;;;;;5025380;28;20221;-63
2022/07/06 05:44:14;;;;;;;7.03;6.43;;;18.50;93.30;;;;;;5024612;28;20557;-72
2022/07/06 05:46:39;;;;;;;5.97;5.47;;;18.50;93.60;;;;;;5028627;28;20484;-70
2022/07/06 05:51:50;;;;;;;5.15;4.65;;;18.40;92.90;;;;;;5025218;28;20205;-72
2022/07/06 05:54:15;;;;;;;5.65;4.40;;;19.00;93.20;;;;;;5029381;28;20193;-66
2022/07/06 05:56:41;;;;;;;6.23;4.57;;;18.80;92.50;;;;;;5027520;28;20182;-66
2022/07/06 05:59:07;;;;;;;4.93;4.50;;;18.90;92.50;;;;;;5025797;28;20186;-65
2022/07/06 06:01:32;;;;;;;6.17;4.87;;;18.90;92.30;;;;;;5028655;28;20225;-65
2022/07/06 06:03:59;;;;;;;6.20;5.60;;;19.00;92.10;;;;;;5028871;28;20189;-65
2022/07/06 06:06:25;;;;;;;6.75;5.80;;;19.50;92.40;;;;;;5028715;28;20882;-65
2022/07/06 06:08:51;;;;;;;7.30;5.10;;;18.70;92.00;;;;;;5029650;28;20210;-65
2022/07/06 06:11:17;;;;;;;4.97;4.47;;;19.50;92.20;;;;;;5030077;28;20700;-65
2022/07/06 06:13:42;;;;;;;5.13;4.73;;;19.30;91.70;;;;;;5029524;28;20183;-65
2022/07/06 06:16:08;;;;;;;8.57;4.90;;;19.20;91.60;;;;;;5029856;28;20182;-65
2022/07/06 06:18:34;;;;;;;5.60;5.10;;;19.20;91.20;;;;;;5028490;28;20269;-65
2022/07/06 06:21:00;;;;;;;5.00;4.60;;;19.50;91.00;;;;;;5030071;28;20461;-65
2022/07/06 06:23:26;;;;;;;5.17;4.73;;;20.00;91.20;;;;;;5030470;28;20180;-65
2022/07/06 06:25:52;;;;;;;6.67;4.83;;;19.70;90.30;;;;;;5028935;28;20182;-65
2022/07/06 06:28:18;;;;;;;5.53;4.60;;;19.90;90.10;;;;;;5026518;28;20202;-65
2022/07/06 06:30:43;;;;;;;6.40;5.73;;;20.10;89.40;;;;;;5029987;28;20882;-65
2022/07/06 06:33:14;;;;;;;4.70;4.40;;;20.30;88.40;;;;;;5028029;28;20718;-66
2022/07/06 06:35:48;;;;;;;5.18;4.30;;;20.50;86.80;;;;;;5026188;28;20192;-65
2022/07/06 06:38:15;;;;;;;5.55;5.05;;;20.90;85.40;;;;;;5029520;28;20181;-65
2022/07/06 06:40:41;;;;;;;4.90;4.38;;;20.90;84.90;;;;;;5029634;28;20285;-66
2022/07/06 06:43:07;;;;;;;4.90;4.50;;;21.10;83.90;;;;;;5022271;28;20186;-65
2022/07/06 06:45:33;;;;;;;4.80;4.40;;;21.20;83.40;;;;;;5029902;28;20563;-65
2022/07/06 06:47:59;;;;;;;7.17;4.10;;;21.20;82.70;;;;;;5026025;28;20213;-65
2022/07/06 06:50:24;;;;;;;4.50;4.20;;;21.10;82.80;;;;;;5026015;28;20190;-66
2022/07/06 06:52:51;;;;;;;5.07;4.57;;;21.20;83.20;;;;;;5027804;28;20572;-65
2022/07/06 06:55:17;;;;;;;7.53;4.40;;;21.30;83.00;;;;;;5027243;28;20170;-66
2022/07/06 06:57:43;;;;;;;4.93;4.63;;;21.30;82.80;;;;;;5029361;28;20504;-66
2022/07/06 07:00:09;;;;;;;5.83;4.00;;;21.40;82.90;;;;;;5022750;28;20272;-66
2022/07/06 07:02:35;;;;;;;6.30;5.80;;;21.40;82.80;;;;;;5028233;28;20198;-66
2022/07/06 07:05:01;;;;;;;5.03;4.63;;;21.50;82.90;;;;;;5025134;28;20185;-66
2022/07/06 07:07:27;;;;;;;4.00;3.70;;;21.70;82.00;;;;;;5023892;28;20222;-66
2022/07/06 07:09:52;;;;;;;4.50;4.07;;;22.20;81.20;;;;;;5028455;28;20500;-66
2022/07/06 07:12:18;;;;;;;3.97;3.67;;;23.40;77.90;;;;;;5025210;28;20195;-66
2022/07/06 07:14:44;;;;;;;3.53;3.33;;;25.20;73.00;;;;;;5026664;28;20247;-67
2022/07/06 07:17:11;;;;;;;4.33;3.77;;;28.00;62.40;;;;;;5029174;28;20177;-66
2022/07/06 07:19:36;;;;;;;3.97;3.67;;;28.50;58.70;;;;;;5026834;28;20440;-66
2022/07/06 07:22:02;;;;;;;5.93;3.50;;;29.10;57.00;;;;;;5025424;28;20457;-66
2022/07/06 07:24:28;;;;;;;4.70;4.40;;;30.20;54.80;;;;;;5027257;28;20193;-66
2022/07/06 07:26:54;;;;;;;11.60;6.70;;;32.20;50.60;;;;;;5028284;28;20192;-66
2022/07/06 07:29:19;;;;;;;4.63;3.80;;;31.90;49.40;;;;;;5026452;28;20201;-66
2022/07/06 07:31:45;;;;;;;3.20;3.00;;;31.80;48.60;;;;;;5023256;28;20198;-66
2022/07/06 07:34:10;;;;;;;7.13;6.40;;;33.00;47.30;;;;;;5026103;28;20633;-66
2022/07/06 07:36:36;;;;;;;5.30;3.37;;;33.50;44.00;;;;;;5022733;28;20189;-66
2022/07/06 07:39:03;;;;;;;3.67;3.30;;;35.30;42.60;;;;;;5029000;28;20220;-67
2022/07/06 07:41:28;;;;;;;3.37;2.83;;;36.10;40.80;;;;;;5027430;28;20198;-67
2022/07/06 07:43:54;;;;;;;3.03;2.83;;;37.80;37.50;;;;;;5024793;28;20489;-67
2022/07/06 07:46:20;;;;;;;3.67;3.33;;;38.90;34.60;;;;;;5028482;28;20647;-67
2022/07/06 07:48:45;;;;;;;4.60;4.13;;;38.90;33.80;;;;;;5025308;28;20240;-67
2022/07/06 07:51:11;;;;;;;5.93;3.40;;;38.50;32.90;;;;;;5028651;28;20738;-67
2022/07/06 07:53:36;;;;;;;3.87;3.67;;;39.70;32.50;;;;;;5028678;28;20262;-67
2022/07/06 07:56:02;;;;;;;3.70;3.10;;;37.90;31.30;;;;;;5028450;28;20197;-66
2022/07/06 07:58:28;;;;;;;3.80;3.50;;;36.40;35.10;;;;;;5028368;28;20635;-66
2022/07/06 08:00:54;;;;;;;5.43;3.10;;;36.40;34.90;;;;;;5025975;28;20205;-66
2022/07/06 08:03:20;;;;;;;3.17;2.87;;;36.50;35.00;;;;;;5021667;28;20293;-67
2022/07/06 08:05:47;;;;;;;4.87;4.13;;;37.40;34.00;;;;;;5029083;28;20192;-66
2022/07/06 08:08:13;;;;;;;4.40;3.53;;;36.30;33.60;;;;;;5028787;28;20175;-67
2022/07/06 08:10:38;;;;;;;5.03;4.63;;;35.70;34.90;;;;;;5023616;28;20834;-67
2022/07/06 08:13:06;;;;;;;3.47;3.17;;;36.70;34.20;;;;;;5016708;28;20186;-66
2022/07/06 08:15:35;;;;;;;3.73;3.43;;;37.20;34.20;;;;;;5029577;28;20177;-67
2022/07/06 08:18:01;;;;;;;4.27;3.50;;;37.50;34.30;;;;;;5019156;28;20445;-66
2022/07/06 08:20:26;;;;;;;4.83;3.60;;;35.80;35.00;;;;;;5017289;28;20496;-66
2022/07/06 08:22:52;;;;;;;3.80;3.50;;;35.50;35.60;;;;;;5027616;28;20190;-66
2022/07/06 08:25:18;;;;;;;4.47;3.40;;;34.30;36.80;;;;;;5025173;28;20179;-66
2022/07/06 08:27:44;;;;;;;4.00;3.20;;;35.40;36.80;;;;;;5025981;28;20718;-67
2022/07/06 08:30:10;;;;;;;5.53;3.40;;;36.40;35.50;;;;;;5027698;28;20464;-66
2022/07/06 08:32:45;;;;;;;4.33;3.27;;;36.90;34.40;;;;;;5028591;28;20574;-67
2022/07/06 08:35:11;;;;;;;4.37;3.97;;;37.00;34.50;;;;;;5025399;28;20444;-66
2022/07/06 08:37:37;;;;;;;3.83;3.00;;;36.00;35.20;;;;;;5027109;28;20435;-67
2022/07/06 08:40:04;;;;;;;4.60;3.33;;;36.80;35.00;;;;;;5028864;28;20448;-67
2022/07/06 08:42:32;;;;;;;4.43;3.53;;;36.60;35.40;;;;;;5027086;28;20210;-67
2022/07/06 08:45:00;;;;;;;4.53;3.50;;;36.40;34.70;;;;;;5023667;28;20537;-67
2022/07/06 08:47:27;;;;;;;5.63;3.57;;;35.90;35.30;;;;;;5029867;28;20441;-67
2022/07/06 08:49:54;;;;;;;4.33;4.00;;;35.30;35.90;;;;;;5030955;28;20564;-67
2022/07/06 08:52:22;;;;;;;3.97;3.50;;;34.80;36.80;;;;;;5031997;28;20456;-67
2022/07/06 08:54:48;;;;;;;4.20;3.80;;;35.70;36.50;;;;;;5023204;28;20426;-67
2022/07/06 08:57:14;;;;;;;5.47;4.00;;;34.40;35.70;;;;;;5030166;28;20476;-67
2022/07/06 08:59:39;;;;;;;3.50;3.20;;;33.50;38.10;;;;;;5029822;28;20672;-67
2022/07/06 09:02:05;;;;;;;3.93;3.30;;;34.30;38.60;;;;;;5030894;28;20556;-67
2022/07/06 09:04:35;;;;;;;8.40;3.30;;;34.50;38.60;;;;;;5021520;28;20325;-67
2022/07/06 09:07:00;;;;;;;4.63;3.70;;;35.80;36.90;;;;;;5031480;28;20455;-67
2022/07/06 09:09:30;;;;;;;4.83;3.93;;;35.60;35.70;;;;;;5031133;28;20795;-67
2022/07/06 09:11:56;;;;;;;4.30;3.90;;;34.70;36.60;;;;;;5030981;28;20291;-67
2022/07/06 09:14:22;;;;;;;3.40;3.10;;;35.50;36.70;;;;;;5025253;28;20440;-67
2022/07/06 09:16:52;;;;;;;4.00;3.23;;;36.10;36.80;;;;;;5029809;28;20794;-68
2022/07/06 09:19:18;;;;;;;3.23;3.03;;;36.00;36.80;;;;;;5028033;28;20197;-67
2022/07/06 09:21:43;;;;;;;4.30;3.20;;;35.10;36.20;;;;;;5024118;28;20986;-67
2022/07/06 09:24:12;;;;;;;4.20;3.90;;;35.70;36.50;;;;;;5030384;28;20244;-67
2022/07/06 09:26:39;;;;;;;4.90;3.63;;;34.40;37.20;;;;;;5028407;28;20202;-67
2022/07/06 09:29:06;;;;;;;4.03;3.40;;;34.50;37.10;;;;;;5028409;28;20487;-67
2022/07/06 09:31:32;;;;;;;4.93;3.70;;;34.40;36.90;;;;;;5031874;28;20515;-67
2022/07/06 09:33:59;;;;;;;3.90;3.60;;;33.40;38.30;;;;;;5022214;28;20808;-67
2022/07/06 09:36:44;;;;;;;5.97;4.60;;;34.10;38.40;;;;;;5026406;28;20532;-67
2022/07/06 09:39:27;;;;;;;5.97;4.53;;;34.30;37.10;;;;;;5027368;28;20496;-66
2022/07/06 09:41:59;;;;;;;4.30;4.00;;;35.00;37.20;;;;;;5023205;28;20464;-67
2022/07/06 09:44:32;;;;;;;3.60;3.30;;;35.00;36.60;;;;;;5030114;28;20953;-67
2022/07/06 09:47:00;;;;;;;4.43;3.47;;;36.20;35.60;;;;;;5030695;28;20472;-66
2022/07/06 09:49:26;;;;;;;5.93;4.20;;;35.90;34.60;;;;;;5022246;28;20488;-66
2022/07/06 09:52:00;;;;;;;4.70;4.03;;;35.40;34.80;;;;;;5030357;28;20817;-66
2022/07/06 09:54:26;;;;;;;4.80;4.03;;;34.60;35.70;;;;;;5025464;28;20506;-68
2022/07/06 09:56:53;;;;;;;4.37;3.57;;;34.10;37.10;;;;;;5024491;28;20430;-67
2022/07/06 09:59:23;;;;;;;4.43;4.03;;;34.30;37.80;;;;;;5029990;28;20503;-68
2022/07/06 10:02:00;;;;;;;4.70;4.30;;;34.50;37.50;;;;;;5030867;28;20532;-68
2022/07/06 10:04:28;;;;;;;4.27;4.07;;;34.60;37.60;;;;;;5023825;28;20452;-68
2022/07/06 10:06:55;;;;;;;7.90;3.67;;;34.40;36.50;;;;;;5023324;28;20456;-68
2022/07/06 10:09:22;;;;;;;4.20;3.90;;;35.40;36.50;;;;;;5030778;28;20452;-67
2022/07/06 10:11:53;;;;;;;5.70;4.10;;;34.00;36.50;;;;;;5030693;28;20818;-67
2022/07/06 10:14:22;;;;;;;5.20;3.60;;;34.80;37.20;;;;;;5028442;28;20456;-68
2022/07/06 10:16:48;;;;;;;4.23;3.77;;;35.40;36.50;;;;;;5030057;28;20428;-68
2022/07/06 10:19:15;;;;;;;4.63;4.30;;;33.20;39.00;;;;;;5026441;28;20535;-68
2022/07/06 10:21:41;;;;;;;5.80;5.33;;;31.60;41.10;;;;;;5029366;28;20470;-67
2022/07/06 10:24:09;;;;;;;5.40;4.60;;;31.00;43.20;;;;;;5030434;28;20447;-68
2022/07/06 10:26:35;;;;;;;4.40;4.00;;;31.20;42.10;;;;;;5029647;28;20431;-68
2022/07/06 10:29:03;;;;;;;5.03;3.93;;;31.70;41.50;;;;;;5025108;28;20480;-67
2022/07/06 10:31:31;;;;;;;4.43;4.00;;;32.50;41.10;;;;;;5030472;28;20542;-68
2022/07/06 10:33:59;;;;;;;5.60;4.80;;;31.60;41.30;;;;;;5028412;28;20490;-67
2022/07/06 10:36:26;;;;;;;4.33;3.93;;;31.80;41.20;;;;;;5026805;28;20493;-67
2022/07/06 10:38:53;;;;;;;4.93;4.10;;;32.30;41.90;;;;;;5029441;28;20460;-67
2022/07/06 10:41:30;;;;;;;4.57;4.20;;;31.90;41.90;;;;;;5023850;28;20484;-68
2022/07/06 10:43:57;;;;;;;4.50;4.10;;;32.30;41.30;;;;;;5029108;28;20490;-68
2022/07/06 10:46:28;;;;;;;4.70;3.80;;;32.90;41.00;;;;;;5029964;28;20482;-68
2022/07/06 10:48:56;;;;;;;5.27;4.87;;;33.30;39.70;;;;;;5026155;28;20527;-68
2022/07/06 10:51:28;;;;;;;5.20;4.70;;;33.40;39.20;;;;;;5029132;28;20449;-68
2022/07/06 10:54:01;;;;;;;4.20;3.80;;;31.70;41.50;;;;;;5029194;28;20440;-68
2022/07/06 10:56:44;;;;;;;5.10;4.23;;;32.70;40.90;;;;;;5025178;28;20445;-68
2022/07/06 10:59:17;;;;;;;4.40;3.47;;;32.90;39.50;;;;;;5022501;28;20535;-68
2022/07/06 11:02:12;;;;;;;10.30;4.53;;;33.20;39.90;;;;;;5018555;28;21106;-68
2022/07/06 11:04:38;;;;;;;6.13;4.90;;;33.20;39.70;;;;;;5027488;28;20456;-68
2022/07/06 11:07:18;;;;;;;4.90;4.17;;;34.40;39.20;;;;;;5026661;28;20449;-68
2022/07/06 11:10:02;;;;;;;5.70;3.43;;;33.60;39.20;;;;;;5026703;28;20476;-68
2022/07/06 11:12:28;;;;;;;7.87;7.17;;;32.80;40.60;;;;;;5023022;28;20449;-67
2022/07/06 11:14:54;;;;;;;4.10;3.80;;;33.10;40.20;;;;;;5025127;28;20437;-67
2022/07/06 11:17:20;;;;;;;5.93;3.90;;;31.90;41.20;;;;;;5027267;28;20643;-67
2022/07/06 11:20:10;;;;;;;5.03;4.60;;;31.40;42.30;;;;;;5028487;28;20479;-68
2022/07/06 11:22:37;;;;;;;4.50;3.90;;;31.30;43.20;;;;;;5023465;28;20554;-67
2022/07/06 11:25:05;;;;;;;7.13;4.90;;;31.40;42.90;;;;;;5027462;28;20531;-65
2022/07/06 11:27:31;;;;;;;3.93;3.60;;;32.30;42.50;;;;;;5027426;28;20518;-68
2022/07/06 11:29:57;;;;;;;6.37;4.23;;;32.80;41.40;;;;;;5027455;28;20474;-68
2022/07/06 11:32:27;;;;;;;6.07;4.33;;;33.10;40.20;;;;;;5024645;28;20464;-67
2022/07/06 11:34:53;;;;;;;4.53;3.97;;;33.00;40.20;;;;;;5028334;28;20548;-66
2022/07/06 11:37:20;;;;;;;9.43;4.90;;;31.50;42.50;;;;;;5025911;28;20473;-67
2022/07/06 11:39:47;;;;;;;4.67;3.50;;;30.90;43.50;;;;;;5024837;28;20497;-67
2022/07/06 11:42:16;;;;;;;5.23;4.73;;;31.00;43.50;;;;;;5027020;28;20548;-67
2022/07/06 11:44:43;;;;;;;4.60;4.20;;;30.60;44.50;;;;;;5028239;28;20452;-67
2022/07/06 11:47:10;;;;;;;4.37;4.07;;;29.20;46.10;;;;;;5029114;28;20495;-67
2022/07/06 11:49:39;;;;;;;5.03;4.57;;;29.40;47.30;;;;;;5020403;28;20469;-68
2022/07/06 11:52:12;;;;;;;5.40;4.90;;;29.30;46.00;;;;;;5022705;28;20475;-67
2022/07/06 11:54:39;;;;;;;6.50;4.47;;;29.00;47.90;;;;;;5017524;28;20569;-67
2022/07/06 11:57:08;;;;;;;5.13;4.70;;;29.10;47.10;;;;;;5024202;28;20520;-66
2022/07/06 11:59:35;;;;;;;6.65;5.43;;;28.50;47.90;;;;;;5022815;28;20541;-68
2022/07/06 12:02:03;;;;;;;7.40;4.73;;;28.30;49.30;;;;;;5021647;28;20221;-68
2022/07/06 12:04:30;;;;;;;7.27;4.97;;;28.40;49.50;;;;;;5027152;28;20919;-69
2022/07/06 12:07:00;;;;;;;6.03;4.37;;;28.20;49.10;;;;;;5026966;28;20455;-68
2022/07/06 12:09:28;;;;;;;4.40;4.00;;;27.70;49.80;;;;;;5026345;28;21043;-68
2022/07/06 12:11:54;;;;;;;5.73;4.53;;;27.20;50.30;;;;;;5024242;28;20475;-68
2022/07/06 12:14:21;;;;;;;4.87;4.43;;;27.20;51.20;;;;;;5021347;28;20534;-68
2022/07/06 12:16:49;;;;;;;5.33;4.83;;;27.10;51.10;;;;;;5026276;28;20713;-68
2022/07/06 12:19:15;;;;;;;4.07;3.73;;;27.20;51.10;;;;;;5025793;28;20446;-67
2022/07/06 12:21:44;;;;;;;4.53;4.23;;;27.20;51.70;;;;;;5029922;28;20480;-68
2022/07/06 12:24:16;;;;;;;4.93;4.30;;;27.10;52.00;;;;;;5034459;28;20448;-67
2022/07/06 12:26:42;;;;;;;5.67;4.80;;;26.90;52.20;;;;;;5022777;28;20484;-68
2022/07/06 12:29:10;;;;;;;7.03;5.87;;;26.70;52.30;;;;;;5020912;28;20574;-68
2022/07/06 12:31:38;;;;;;;8.77;4.70;;;26.70;52.40;;;;;;5025180;28;20484;-69
2022/07/06 12:34:04;;;;;;;5.00;4.60;;;26.80;52.40;;;;;;5027334;28;20437;-68
2022/07/06 12:36:31;;;;;;;5.70;4.90;;;26.30;52.30;;;;;;5031400;28;20436;-68
2022/07/06 12:38:57;;;;;;;4.93;4.47;;;26.20;53.50;;;;;;5043697;28;20476;-68
2022/07/06 12:41:25;;;;;;;5.10;4.60;;;26.10;53.20;;;;;;5028700;28;20899;-68
2022/07/06 12:44:09;;;;;;;7.13;4.53;;;26.20;53.60;;;;;;5027130;28;20500;-67
2022/07/06 12:46:41;;;;;;;8.27;6.13;;;26.30;53.10;;;;;;5025123;28;20441;-68
2022/07/06 12:49:25;;;;;;;7.23;4.50;;;26.20;53.00;;;;;;5021849;28;20499;-69
2022/07/06 12:51:57;;;;;;;6.10;4.33;;;26.30;53.30;;;;;;5032850;28;20452;-68